Aeroporto :
LOGIN :

Iscrizione | Disclaimer

   EN    FR    IT 

 










Sommario :    VFR   VFR Marginale   IFR   IFR Intensivo   IFR Molto Intensivo
Visibilità : 
Base nubi : 
>= 8 km
>= 3000ft
5 / 8 km
1000 / 3000 ft
1500m / 5 km
500 / 1000 ft
800 / 1500m
200 / 500 ft
< 800m
< 200 ft
Simboli :   Temporali  Nebbia  Neve Forte  Precipitazioni Forti  Vento > 20 kt
SIGMETs :   Varie  Temporali  Ghiacco  Turbolenza  Onda orograficha  Ceneri Vulcaniche






- Altitudine del aeroporto : 370 ft


EBBE - Beauvechain AB

ULTIMO METAR :
  • 201855Z AUTO 09003KT 9999 NCD 01/M01 Q1013 BLU

METARs OBSOLETI :
  • 201825Z AUTO 11005KT 9999 NCD 01/M01 Q1013 BLU
  • 201755Z AUTO 11005KT 9999 NCD 02/M01 Q1013 BLU
  • 201725Z AUTO 12005KT 9999 FEW021/// 02/M00 Q1014 BLU
  • 201655Z AUTO 13004KT 9999 BKN021/// 03/00 Q1014 WHT
  • 201625Z AUTO 14007KT 9999 OVC021/// 03/00 Q1014 WHT

TAF TAF EBBE
Valido dal 20 a 19 ore il 21 a 07 ore UTC


201541Z 2019/2107 09007KT 9999 SCT080
PROB40
TEMPO 2104/2107 3000 BR FEW007 SCT010



MetMap, La meteo Aeronautica in un colpo d'occhio ! - Copyright ORBIFLY Dicembre 2007 - Disclaimer

ORBIFLY MET'MAP TEAM :

Programmazione e sviluppo : Alexandra Zaïnal
Concezione e sviluppo : Baudouin d'Aumeries
Co-Programmazione e sviluppo : Marc-Olivier Méhu
Supporto tecnico e logistico : Manuel Goepfert
Aiuto per la traduzione : Arnaldo La Scala

Contatto : metmap@orbifly.com




FONTI E CREDITI :

   NOAA